sensor_id;sensor_type;location;lat;lon;timestamp;pressure;altitude;pressure_sealevel;temperature;humidity
43125;BME280;49182;50.788;7.318;2023-04-27T00:01:08;101165.38;;;6.51;72.27
43125;BME280;49182;50.788;7.318;2023-04-27T00:03:35;101162.97;;;6.48;71.79
43125;BME280;49182;50.788;7.318;2023-04-27T00:06:02;101162.38;;;6.43;71.77
43125;BME280;49182;50.788;7.318;2023-04-27T00:08:30;101158.44;;;6.50;72.05
43125;BME280;49182;50.788;7.318;2023-04-27T00:10:57;101157.81;;;6.46;71.83
43125;BME280;49182;50.788;7.318;2023-04-27T00:13:24;101141.13;;;6.33;72.68
43125;BME280;49182;50.788;7.318;2023-04-27T00:15:50;101160.88;;;6.39;73.41
43125;BME280;49182;50.788;7.318;2023-04-27T00:18:17;101169.59;;;6.39;73.40
43125;BME280;49182;50.788;7.318;2023-04-27T00:20:44;101159.19;;;6.38;73.73
43125;BME280;49182;50.788;7.318;2023-04-27T00:23:11;101168.19;;;6.34;74.44
43125;BME280;49182;50.788;7.318;2023-04-27T00:25:39;101164.81;;;6.32;74.49
43125;BME280;49182;50.788;7.318;2023-04-27T00:28:06;101159.66;;;6.30;74.30
43125;BME280;49182;50.788;7.318;2023-04-27T00:30:33;101161.63;;;6.27;74.77
43125;BME280;49182;50.788;7.318;2023-04-27T00:32:59;101159.09;;;6.25;74.36
43125;BME280;49182;50.788;7.318;2023-04-27T00:35:26;101137.47;;;6.07;74.28
43125;BME280;49182;50.788;7.318;2023-04-27T00:37:53;101167.34;;;6.19;74.91
43125;BME280;49182;50.788;7.318;2023-04-27T00:40:20;101157.78;;;6.18;74.86
43125;BME280;49182;50.788;7.318;2023-04-27T00:42:48;101163.03;;;6.18;74.77
43125;BME280;49182;50.788;7.318;2023-04-27T00:45:14;101167.72;;;6.13;74.48
43125;BME280;49182;50.788;7.318;2023-04-27T00:47:43;101169.50;;;6.13;74.48
43125;BME280;49182;50.788;7.318;2023-04-27T00:50:10;101175.00;;;6.08;74.55
43125;BME280;49182;50.788;7.318;2023-04-27T00:52:37;101163.13;;;6.02;74.50
43125;BME280;49182;50.788;7.318;2023-04-27T00:55:05;101169.94;;;6.05;74.07
43125;BME280;49182;50.788;7.318;2023-04-27T00:57:32;101172.41;;;6.08;74.47
43125;BME280;49182;50.788;7.318;2023-04-27T01:00:00;101173.03;;;6.12;74.49
43125;BME280;49182;50.788;7.318;2023-04-27T01:02:27;101145.91;;;5.98;75.53
43125;BME280;49182;50.788;7.318;2023-04-27T01:04:55;101162.19;;;6.03;75.81
43125;BME280;49182;50.788;7.318;2023-04-27T01:07:23;101168.38;;;6.02;76.84
43125;BME280;49182;50.788;7.318;2023-04-27T01:09:50;101162.56;;;5.97;77.59
43125;BME280;49182;50.788;7.318;2023-04-27T01:12:17;101164.69;;;5.91;77.48
43125;BME280;49182;50.788;7.318;2023-04-27T01:14:44;101168.34;;;5.88;77.42
43125;BME280;49182;50.788;7.318;2023-04-27T01:17:12;101171.19;;;5.84;77.38
43125;BME280;49182;50.788;7.318;2023-04-27T01:19:39;101176.59;;;5.81;77.66
43125;BME280;49182;50.788;7.318;2023-04-27T01:22:06;101161.53;;;5.70;77.54
43125;BME280;49182;50.788;7.318;2023-04-27T01:24:34;101167.34;;;5.75;77.07
43125;BME280;49182;50.788;7.318;2023-04-27T01:27:03;101175.19;;;5.75;77.72
43125;BME280;49182;50.788;7.318;2023-04-27T01:29:30;101169.22;;;5.73;76.97
43125;BME280;49182;50.788;7.318;2023-04-27T01:31:56;101167.88;;;5.66;77.66
43125;BME280;49182;50.788;7.318;2023-04-27T01:34:23;101164.50;;;5.64;77.97
43125;BME280;49182;50.788;7.318;2023-04-27T01:36:50;101170.78;;;5.61;78.05
43125;BME280;49182;50.788;7.318;2023-04-27T01:39:16;101166.34;;;5.62;77.66
43125;BME280;49182;50.788;7.318;2023-04-27T01:41:44;101161.47;;;5.56;77.61
43125;BME280;49182;50.788;7.318;2023-04-27T01:44:11;101138.63;;;5.44;77.36
43125;BME280;49182;50.788;7.318;2023-04-27T01:46:37;101164.28;;;5.53;78.10
43125;BME280;49182;50.788;7.318;2023-04-27T01:49:05;101171.94;;;5.56;78.38
43125;BME280;49182;50.788;7.318;2023-04-27T01:51:32;101173.84;;;5.54;77.73
43125;BME280;49182;50.788;7.318;2023-04-27T01:53:59;101166.81;;;5.54;77.69
43125;BME280;49182;50.788;7.318;2023-04-27T01:56:26;101171.94;;;5.56;77.83
43125;BME280;49182;50.788;7.318;2023-04-27T01:58:55;101168.50;;;5.55;77.46
43125;BME280;49182;50.788;7.318;2023-04-27T02:01:23;101173.00;;;5.53;78.03
43125;BME280;49182;50.788;7.318;2023-04-27T02:03:49;101184.13;;;5.57;77.70
43125;BME280;49182;50.788;7.318;2023-04-27T02:06:16;101186.72;;;5.57;78.09
43125;BME280;49182;50.788;7.318;2023-04-27T02:08:44;101182.63;;;5.53;77.58
43125;BME280;49182;50.788;7.318;2023-04-27T02:11:11;101184.69;;;5.62;77.68
43125;BME280;49182;50.788;7.318;2023-04-27T02:13:38;101190.69;;;5.64;77.12
43125;BME280;49182;50.788;7.318;2023-04-27T02:16:07;101191.47;;;5.66;77.15
43125;BME280;49182;50.788;7.318;2023-04-27T02:18:33;101185.47;;;5.64;76.94
43125;BME280;49182;50.788;7.318;2023-04-27T02:21:00;101183.69;;;5.64;76.60
43125;BME280;49182;50.788;7.318;2023-04-27T02:23:27;101176.75;;;5.63;76.78
43125;BME280;49182;50.788;7.318;2023-04-27T02:25:54;101181.34;;;5.60;76.32
43125;BME280;49182;50.788;7.318;2023-04-27T02:28:21;101188.44;;;5.58;75.68
43125;BME280;49182;50.788;7.318;2023-04-27T02:30:50;101184.13;;;5.57;75.99
43125;BME280;49182;50.788;7.318;2023-04-27T02:33:18;101183.75;;;5.63;77.15
43125;BME280;49182;50.788;7.318;2023-04-27T02:35:44;101182.25;;;5.59;77.43
43125;BME280;49182;50.788;7.318;2023-04-27T02:38:11;101176.19;;;5.58;77.89
43125;BME280;49182;50.788;7.318;2023-04-27T02:40:38;101191.31;;;5.53;78.30
43125;BME280;49182;50.788;7.318;2023-04-27T02:43:05;101184.47;;;5.51;78.79
43125;BME280;49182;50.788;7.318;2023-04-27T02:45:35;101174.63;;;5.40;79.55
43125;BME280;49182;50.788;7.318;2023-04-27T02:48:04;101192.59;;;5.46;79.02
43125;BME280;49182;50.788;7.318;2023-04-27T02:50:39;101183.41;;;5.39;79.60
43125;BME280;49182;50.788;7.318;2023-04-27T02:53:06;101174.78;;;5.37;79.40
43125;BME280;49182;50.788;7.318;2023-04-27T02:55:32;101165.13;;;5.23;79.34
43125;BME280;49182;50.788;7.318;2023-04-27T02:57:59;101186.00;;;5.39;79.07
43125;BME280;49182;50.788;7.318;2023-04-27T03:00:26;101179.59;;;5.45;78.36
43125;BME280;49182;50.788;7.318;2023-04-27T03:02:52;101168.63;;;5.38;78.57
43125;BME280;49182;50.788;7.318;2023-04-27T03:05:19;101180.00;;;5.37;78.83
43125;BME280;49182;50.788;7.318;2023-04-27T03:07:47;101173.19;;;5.35;78.81
43125;BME280;49182;50.788;7.318;2023-04-27T03:10:14;101172.34;;;5.34;79.21
43125;BME280;49182;50.788;7.318;2023-04-27T03:12:41;101175.03;;;5.33;79.48
43125;BME280;49182;50.788;7.318;2023-04-27T03:15:09;101167.97;;;5.35;79.31
43125;BME280;49182;50.788;7.318;2023-04-27T03:17:35;101161.22;;;5.31;80.06
43125;BME280;49182;50.788;7.318;2023-04-27T03:20:02;101152.88;;;5.24;79.90
43125;BME280;49182;50.788;7.318;2023-04-27T03:22:29;101160.03;;;5.20;80.11
43125;BME280;49182;50.788;7.318;2023-04-27T03:24:57;101166.03;;;5.22;80.26
43125;BME280;49182;50.788;7.318;2023-04-27T03:27:24;101173.88;;;5.22;80.59
43125;BME280;49182;50.788;7.318;2023-04-27T03:29:51;101160.72;;;5.24;80.40
43125;BME280;49182;50.788;7.318;2023-04-27T03:32:18;101170.34;;;5.23;80.22
43125;BME280;49182;50.788;7.318;2023-04-27T03:34:44;101159.31;;;5.18;80.19
43125;BME280;49182;50.788;7.318;2023-04-27T03:37:11;101172.69;;;5.28;79.96
43125;BME280;49182;50.788;7.318;2023-04-27T03:39:38;101171.94;;;5.26;80.33
43125;BME280;49182;50.788;7.318;2023-04-27T03:42:06;101175.66;;;5.22;80.13
43125;BME280;49182;50.788;7.318;2023-04-27T03:44:33;101174.16;;;5.18;80.58
43125;BME280;49182;50.788;7.318;2023-04-27T03:47:00;101163.69;;;5.18;80.19
43125;BME280;49182;50.788;7.318;2023-04-27T03:49:27;101168.31;;;5.13;80.08
43125;BME280;49182;50.788;7.318;2023-04-27T03:51:54;101172.38;;;5.18;80.12
43125;BME280;49182;50.788;7.318;2023-04-27T03:54:21;101174.03;;;5.19;80.13
43125;BME280;49182;50.788;7.318;2023-04-27T03:56:48;101169.84;;;5.17;79.98
43125;BME280;49182;50.788;7.318;2023-04-27T03:59:17;101172.63;;;5.14;80.26
43125;BME280;49182;50.788;7.318;2023-04-27T04:01:48;101172.97;;;5.08;80.77
43125;BME280;49182;50.788;7.318;2023-04-27T04:04:14;101181.06;;;5.03;80.90
43125;BME280;49182;50.788;7.318;2023-04-27T04:06:41;101183.97;;;4.99;80.35
43125;BME280;49182;50.788;7.318;2023-04-27T04:09:10;101185.03;;;4.95;80.30
43125;BME280;49182;50.788;7.318;2023-04-27T04:11:38;101191.22;;;4.94;80.12
43125;BME280;49182;50.788;7.318;2023-04-27T04:14:06;101185.13;;;4.93;80.15
43125;BME280;49182;50.788;7.318;2023-04-27T04:16:34;101186.00;;;4.94;80.26
43125;BME280;49182;50.788;7.318;2023-04-27T04:19:00;101164.19;;;4.77;80.21
43125;BME280;49182;50.788;7.318;2023-04-27T04:21:27;101193.72;;;4.95;79.78
43125;BME280;49182;50.788;7.318;2023-04-27T04:23:54;101191.13;;;4.95;79.96
43125;BME280;49182;50.788;7.318;2023-04-27T04:26:21;101182.69;;;4.90;80.15
43125;BME280;49182;50.788;7.318;2023-04-27T04:28:48;101203.97;;;5.00;80.20
43125;BME280;49182;50.788;7.318;2023-04-27T04:31:14;101204.88;;;4.99;80.64
43125;BME280;49182;50.788;7.318;2023-04-27T04:33:42;101198.97;;;4.95;81.05
43125;BME280;49182;50.788;7.318;2023-04-27T04:36:09;101204.38;;;4.92;80.34
43125;BME280;49182;50.788;7.318;2023-04-27T04:38:36;101191.19;;;4.78;80.87
43125;BME280;49182;50.788;7.318;2023-04-27T04:41:03;101203.47;;;4.93;80.61
43125;BME280;49182;50.788;7.318;2023-04-27T04:43:32;101202.69;;;4.91;80.65
43125;BME280;49182;50.788;7.318;2023-04-27T04:46:02;101206.91;;;4.94;80.98
43125;BME280;49182;50.788;7.318;2023-04-27T04:48:29;101207.16;;;4.89;80.73
43125;BME280;49182;50.788;7.318;2023-04-27T04:50:57;101209.03;;;4.87;80.65
43125;BME280;49182;50.788;7.318;2023-04-27T04:53:23;101214.47;;;4.82;80.88
43125;BME280;49182;50.788;7.318;2023-04-27T04:55:50;101214.75;;;4.78;80.96
43125;BME280;49182;50.788;7.318;2023-04-27T04:58:16;101220.88;;;4.77;80.91
43125;BME280;49182;50.788;7.318;2023-04-27T05:00:43;101219.97;;;4.78;80.80
43125;BME280;49182;50.788;7.318;2023-04-27T05:03:09;101212.38;;;4.73;80.63
43125;BME280;49182;50.788;7.318;2023-04-27T05:05:37;101219.63;;;4.68;80.69
43125;BME280;49182;50.788;7.318;2023-04-27T05:08:04;101220.69;;;4.64;81.37
43125;BME280;49182;50.788;7.318;2023-04-27T05:10:31;101223.31;;;4.64;81.29
43125;BME280;49182;50.788;7.318;2023-04-27T05:12:58;101224.16;;;4.65;81.60
43125;BME280;49182;50.788;7.318;2023-04-27T05:15:24;101227.69;;;4.64;81.83
43125;BME280;49182;50.788;7.318;2023-04-27T05:17:51;101230.25;;;4.65;81.48
43125;BME280;49182;50.788;7.318;2023-04-27T05:20:18;101218.94;;;4.65;81.76
43125;BME280;49182;50.788;7.318;2023-04-27T05:22:44;101232.47;;;4.73;81.47
43125;BME280;49182;50.788;7.318;2023-04-27T05:25:12;101243.59;;;4.76;81.68
43125;BME280;49182;50.788;7.318;2023-04-27T05:27:39;101233.97;;;4.77;82.03
43125;BME280;49182;50.788;7.318;2023-04-27T05:30:06;101229.84;;;4.88;82.09
43125;BME280;49182;50.788;7.318;2023-04-27T05:32:33;101238.22;;;4.95;82.03
43125;BME280;49182;50.788;7.318;2023-04-27T05:35:00;101236.44;;;4.96;82.03
43125;BME280;49182;50.788;7.318;2023-04-27T05:37:26;101237.13;;;4.99;82.40
43125;BME280;49182;50.788;7.318;2023-04-27T05:39:53;101245.56;;;5.04;82.53
43125;BME280;49182;50.788;7.318;2023-04-27T05:42:21;101246.25;;;5.08;82.50
43125;BME280;49182;50.788;7.318;2023-04-27T05:44:47;101245.75;;;5.17;82.77
43125;BME280;49182;50.788;7.318;2023-04-27T05:47:14;101239.47;;;5.19;82.40
43125;BME280;49182;50.788;7.318;2023-04-27T05:49:40;101234.16;;;5.21;82.24
43125;BME280;49182;50.788;7.318;2023-04-27T05:52:07;101247.63;;;5.31;81.99
43125;BME280;49182;50.788;7.318;2023-04-27T05:54:34;101252.59;;;5.35;82.01
43125;BME280;49182;50.788;7.318;2023-04-27T05:57:00;101254.00;;;5.41;81.32
43125;BME280;49182;50.788;7.318;2023-04-27T05:59:28;101245.31;;;5.40;80.74
43125;BME280;49182;50.788;7.318;2023-04-27T06:01:55;101244.97;;;5.46;80.45
43125;BME280;49182;50.788;7.318;2023-04-27T06:04:21;101259.00;;;5.61;79.85
43125;BME280;49182;50.788;7.318;2023-04-27T06:06:48;101261.84;;;5.72;79.15
43125;BME280;49182;50.788;7.318;2023-04-27T06:09:15;101262.34;;;5.79;79.42
43125;BME280;49182;50.788;7.318;2023-04-27T06:11:41;101218.56;;;5.65;79.32
43125;BME280;49182;50.788;7.318;2023-04-27T06:14:08;101247.50;;;5.93;78.79
43125;BME280;49182;50.788;7.318;2023-04-27T06:16:36;101257.19;;;6.07;77.52
43125;BME280;49182;50.788;7.318;2023-04-27T06:19:02;101256.84;;;6.13;77.27
43125;BME280;49182;50.788;7.318;2023-04-27T06:21:31;101255.00;;;6.15;77.27
43125;BME280;49182;50.788;7.318;2023-04-27T06:23:57;101260.28;;;6.29;76.81
43125;BME280;49182;50.788;7.318;2023-04-27T06:26:24;101264.88;;;6.40;76.84
43125;BME280;49182;50.788;7.318;2023-04-27T06:28:50;101266.19;;;6.47;76.97
43125;BME280;49182;50.788;7.318;2023-04-27T06:31:17;101273.41;;;6.58;75.26
43125;BME280;49182;50.788;7.318;2023-04-27T06:33:45;101270.03;;;6.70;74.08
43125;BME280;49182;50.788;7.318;2023-04-27T06:36:12;101273.03;;;6.78;73.58
43125;BME280;49182;50.788;7.318;2023-04-27T06:38:38;101257.19;;;6.79;72.86
43125;BME280;49182;50.788;7.318;2023-04-27T06:41:05;101275.00;;;7.03;72.82
43125;BME280;49182;50.788;7.318;2023-04-27T06:43:31;101270.84;;;7.13;71.75
43125;BME280;49182;50.788;7.318;2023-04-27T06:45:58;101269.25;;;7.24;71.65
43125;BME280;49182;50.788;7.318;2023-04-27T06:48:24;101266.50;;;7.40;70.19
43125;BME280;49182;50.788;7.318;2023-04-27T06:50:52;101272.22;;;7.59;68.06
43125;BME280;49182;50.788;7.318;2023-04-27T06:53:19;101262.44;;;7.76;65.18
43125;BME280;49182;50.788;7.318;2023-04-27T06:55:45;101265.94;;;7.89;62.75
43125;BME280;49182;50.788;7.318;2023-04-27T06:58:14;101243.13;;;7.89;60.96
43125;BME280;49182;50.788;7.318;2023-04-27T07:00:40;101270.91;;;8.06;60.20
43125;BME280;49182;50.788;7.318;2023-04-27T07:03:07;101271.88;;;8.18;60.56
43125;BME280;49182;50.788;7.318;2023-04-27T07:05:34;101247.06;;;8.22;59.21
43125;BME280;49182;50.788;7.318;2023-04-27T07:08:02;101260.78;;;8.39;59.35
43125;BME280;49182;50.788;7.318;2023-04-27T07:10:33;101245.22;;;8.36;58.92
43125;BME280;49182;50.788;7.318;2023-04-27T07:13:00;101259.75;;;8.55;58.90
43125;BME280;49182;50.788;7.318;2023-04-27T07:15:27;101262.03;;;8.72;58.29
43125;BME280;49182;50.788;7.318;2023-04-27T07:17:53;101253.53;;;8.81;59.50
43125;BME280;49182;50.788;7.318;2023-04-27T07:20:20;101256.13;;;8.93;58.88
43125;BME280;49182;50.788;7.318;2023-04-27T07:22:46;101264.31;;;9.02;58.92
43125;BME280;49182;50.788;7.318;2023-04-27T07:25:15;101253.75;;;9.14;57.90
43125;BME280;49182;50.788;7.318;2023-04-27T07:27:41;101252.56;;;9.31;57.05
43125;BME280;49182;50.788;7.318;2023-04-27T07:30:09;101236.41;;;9.36;56.62
43125;BME280;49182;50.788;7.318;2023-04-27T07:32:38;101250.44;;;9.60;56.69
43125;BME280;49182;50.788;7.318;2023-04-27T07:35:05;101245.84;;;9.74;57.42
43125;BME280;49182;50.788;7.318;2023-04-27T07:37:35;101245.53;;;9.90;56.70
43125;BME280;49182;50.788;7.318;2023-04-27T07:40:01;101242.22;;;9.99;56.00
43125;BME280;49182;50.788;7.318;2023-04-27T07:42:29;101241.53;;;10.08;54.62
43125;BME280;49182;50.788;7.318;2023-04-27T07:44:56;101240.72;;;10.19;53.85
43125;BME280;49182;50.788;7.318;2023-04-27T07:47:23;101241.00;;;10.27;53.96
43125;BME280;49182;50.788;7.318;2023-04-27T07:49:49;101240.16;;;10.38;52.38
43125;BME280;49182;50.788;7.318;2023-04-27T07:52:16;101238.91;;;10.54;50.71
43125;BME280;49182;50.788;7.318;2023-04-27T07:54:42;101236.47;;;10.63;49.78
43125;BME280;49182;50.788;7.318;2023-04-27T07:57:09;101229.19;;;10.66;50.93
43125;BME280;49182;50.788;7.318;2023-04-27T07:59:37;101220.41;;;10.77;48.52
43125;BME280;49182;50.788;7.318;2023-04-27T08:02:04;101229.63;;;10.93;46.66
43125;BME280;49182;50.788;7.318;2023-04-27T08:04:45;101234.31;;;10.90;47.10
43125;BME280;49182;50.788;7.318;2023-04-27T08:07:12;101235.16;;;10.90;48.06
43125;BME280;49182;50.788;7.318;2023-04-27T08:09:38;101229.03;;;11.01;47.71
43125;BME280;49182;50.788;7.318;2023-04-27T08:12:05;101225.53;;;11.01;47.47
43125;BME280;49182;50.788;7.318;2023-04-27T08:14:33;101234.81;;;10.95;49.15
43125;BME280;49182;50.788;7.318;2023-04-27T08:17:01;101224.94;;;11.08;49.24
43125;BME280;49182;50.788;7.318;2023-04-27T08:19:28;101226.59;;;11.20;48.67
43125;BME280;49182;50.788;7.318;2023-04-27T08:21:54;101225.16;;;11.27;47.45
43125;BME280;49182;50.788;7.318;2023-04-27T08:24:21;101223.53;;;11.36;46.50
43125;BME280;49182;50.788;7.318;2023-04-27T08:26:47;101224.03;;;11.41;47.29
43125;BME280;49182;50.788;7.318;2023-04-27T08:29:14;101220.63;;;11.50;47.69
43125;BME280;49182;50.788;7.318;2023-04-27T08:31:54;101210.00;;;11.61;45.67
43125;BME280;49182;50.788;7.318;2023-04-27T08:34:24;101218.41;;;11.78;46.29
43125;BME280;49182;50.788;7.318;2023-04-27T08:36:50;101215.09;;;11.85;46.82
43125;BME280;49182;50.788;7.318;2023-04-27T08:39:17;101210.34;;;12.00;45.71
43125;BME280;49182;50.788;7.318;2023-04-27T08:41:44;101190.66;;;11.93;43.40
43125;BME280;49182;50.788;7.318;2023-04-27T08:44:11;101209.00;;;12.05;44.16
43125;BME280;49182;50.788;7.318;2023-04-27T08:46:37;101214.28;;;12.05;44.30
43125;BME280;49182;50.788;7.318;2023-04-27T08:49:04;101201.81;;;12.17;43.48
43125;BME280;49182;50.788;7.318;2023-04-27T08:51:33;101203.38;;;12.20;43.61
43125;BME280;49182;50.788;7.318;2023-04-27T08:54:00;101202.13;;;12.24;43.35
43125;BME280;49182;50.788;7.318;2023-04-27T08:56:28;101200.94;;;12.28;44.55
43125;BME280;49182;50.788;7.318;2023-04-27T08:58:56;101202.06;;;12.35;44.34
43125;BME280;49182;50.788;7.318;2023-04-27T09:01:24;101193.16;;;12.36;44.19
43125;BME280;49182;50.788;7.318;2023-04-27T09:03:54;101202.59;;;12.59;42.70
43125;BME280;49182;50.788;7.318;2023-04-27T09:06:28;101195.75;;;12.56;42.42
43125;BME280;49182;50.788;7.318;2023-04-27T09:08:56;101206.69;;;12.73;43.45
43125;BME280;49182;50.788;7.318;2023-04-27T09:11:28;101209.53;;;12.81;44.13
43125;BME280;49182;50.788;7.318;2023-04-27T09:13:54;101198.03;;;13.01;41.45
43125;BME280;49182;50.788;7.318;2023-04-27T09:16:22;101191.56;;;12.94;43.81
43125;BME280;49182;50.788;7.318;2023-04-27T09:18:49;101187.41;;;13.01;44.06
43125;BME280;49182;50.788;7.318;2023-04-27T09:21:21;101175.44;;;13.07;42.91
43125;BME280;49182;50.788;7.318;2023-04-27T09:23:48;101181.47;;;13.18;41.59
43125;BME280;49182;50.788;7.318;2023-04-27T09:26:20;101173.31;;;13.10;42.21
43125;BME280;49182;50.788;7.318;2023-04-27T09:28:48;101179.66;;;13.19;40.66
43125;BME280;49182;50.788;7.318;2023-04-27T09:31:15;101186.34;;;13.13;39.63
43125;BME280;49182;50.788;7.318;2023-04-27T09:33:43;101164.53;;;13.10;40.68
43125;BME280;49182;50.788;7.318;2023-04-27T09:36:10;101169.91;;;13.29;41.92
43125;BME280;49182;50.788;7.318;2023-04-27T09:38:37;101165.31;;;13.60;42.58
43125;BME280;49182;50.788;7.318;2023-04-27T09:41:04;101176.31;;;13.84;40.59
43125;BME280;49182;50.788;7.318;2023-04-27T09:43:35;101173.00;;;13.82;39.11
43125;BME280;49182;50.788;7.318;2023-04-27T09:46:03;101174.91;;;13.90;39.86
43125;BME280;49182;50.788;7.318;2023-04-27T09:48:30;101164.97;;;14.01;40.33
43125;BME280;49182;50.788;7.318;2023-04-27T09:50:56;101160.19;;;14.14;41.01
43125;BME280;49182;50.788;7.318;2023-04-27T09:53:26;101164.59;;;14.33;39.54
43125;BME280;49182;50.788;7.318;2023-04-27T09:56:02;101159.00;;;14.46;38.33
43125;BME280;49182;50.788;7.318;2023-04-27T09:58:51;101157.75;;;14.50;39.07
43125;BME280;49182;50.788;7.318;2023-04-27T10:01:26;101155.56;;;14.63;38.41
43125;BME280;49182;50.788;7.318;2023-04-27T10:04:06;101159.03;;;14.73;38.04
43125;BME280;49182;50.788;7.318;2023-04-27T10:07:07;101156.63;;;14.80;36.85
43125;BME280;49182;50.788;7.318;2023-04-27T10:09:36;101156.75;;;14.78;38.00
43125;BME280;49182;50.788;7.318;2023-04-27T10:12:14;101160.13;;;14.80;37.58
43125;BME280;49182;50.788;7.318;2023-04-27T10:14:50;101151.44;;;14.78;36.65
43125;BME280;49182;50.788;7.318;2023-04-27T10:17:17;101157.16;;;14.56;36.75
43125;BME280;49182;50.788;7.318;2023-04-27T10:19:55;101137.38;;;14.68;37.32
43125;BME280;49182;50.788;7.318;2023-04-27T10:22:36;101140.59;;;14.89;37.40
43125;BME280;49182;50.788;7.318;2023-04-27T10:25:11;101138.94;;;15.06;38.12
43125;BME280;49182;50.788;7.318;2023-04-27T10:27:38;101133.81;;;15.22;38.46
43125;BME280;49182;50.788;7.318;2023-04-27T10:30:10;101145.97;;;15.25;37.80
43125;BME280;49182;50.788;7.318;2023-04-27T10:32:48;101139.97;;;15.41;37.98
43125;BME280;49182;50.788;7.318;2023-04-27T10:35:15;101147.13;;;15.40;35.64
43125;BME280;49182;50.788;7.318;2023-04-27T10:37:42;101149.06;;;15.03;35.86
43125;BME280;49182;50.788;7.318;2023-04-27T10:40:11;101135.69;;;15.12;36.71
43125;BME280;49182;50.788;7.318;2023-04-27T10:42:38;101135.34;;;15.43;37.75
43125;BME280;49182;50.788;7.318;2023-04-27T10:45:06;101128.38;;;15.50;36.03
43125;BME280;49182;50.788;7.318;2023-04-27T10:47:39;101129.34;;;15.58;35.85
43125;BME280;49182;50.788;7.318;2023-04-27T10:50:07;101122.09;;;15.51;35.40
43125;BME280;49182;50.788;7.318;2023-04-27T10:52:34;101127.03;;;15.63;36.19
43125;BME280;49182;50.788;7.318;2023-04-27T10:55:12;101124.22;;;15.47;35.81
43125;BME280;49182;50.788;7.318;2023-04-27T10:57:45;101117.09;;;15.65;35.91
43125;BME280;49182;50.788;7.318;2023-04-27T11:00:13;101108.69;;;15.78;36.01
43125;BME280;49182;50.788;7.318;2023-04-27T11:02:43;101112.22;;;15.87;34.78
43125;BME280;49182;50.788;7.318;2023-04-27T11:05:16;101107.31;;;16.00;35.38
43125;BME280;49182;50.788;7.318;2023-04-27T11:07:43;101105.84;;;15.97;35.58
43125;BME280;49182;50.788;7.318;2023-04-27T11:10:14;101088.88;;;16.06;34.57
43125;BME280;49182;50.788;7.318;2023-04-27T11:12:41;101105.22;;;16.11;33.91
43125;BME280;49182;50.788;7.318;2023-04-27T11:15:08;101105.84;;;16.31;36.21
43125;BME280;49182;50.788;7.318;2023-04-27T11:17:35;101083.72;;;16.39;34.93
43125;BME280;49182;50.788;7.318;2023-04-27T11:20:04;101099.16;;;16.61;35.99
43125;BME280;49182;50.788;7.318;2023-04-27T11:22:31;101102.53;;;16.71;33.33
43125;BME280;49182;50.788;7.318;2023-04-27T11:24:58;101093.09;;;16.51;34.73
43125;BME280;49182;50.788;7.318;2023-04-27T11:27:35;101096.25;;;16.46;35.84
43125;BME280;49182;50.788;7.318;2023-04-27T11:30:03;101099.63;;;16.56;34.53
43125;BME280;49182;50.788;7.318;2023-04-27T11:32:29;101090.78;;;16.56;35.52
43125;BME280;49182;50.788;7.318;2023-04-27T11:34:56;101095.19;;;16.73;35.84
43125;BME280;49182;50.788;7.318;2023-04-27T11:37:26;101072.38;;;16.79;36.18
43125;BME280;49182;50.788;7.318;2023-04-27T11:39:53;101085.25;;;16.99;35.67
43125;BME280;49182;50.788;7.318;2023-04-27T11:42:21;101089.09;;;17.05;34.85
43125;BME280;49182;50.788;7.318;2023-04-27T11:44:52;101081.97;;;17.14;35.76
43125;BME280;49182;50.788;7.318;2023-04-27T11:47:19;101067.78;;;17.13;34.06
43125;BME280;49182;50.788;7.318;2023-04-27T11:49:46;101070.47;;;17.37;34.63
43125;BME280;49182;50.788;7.318;2023-04-27T11:52:13;101066.44;;;17.50;36.45
43125;BME280;49182;50.788;7.318;2023-04-27T11:54:47;101070.97;;;17.65;35.95
43125;BME280;49182;50.788;7.318;2023-04-27T11:57:14;101056.78;;;17.65;33.89
43125;BME280;49182;50.788;7.318;2023-04-27T11:59:40;101073.25;;;17.93;34.42
43125;BME280;49182;50.788;7.318;2023-04-27T12:02:07;101065.88;;;18.03;33.33
43125;BME280;49182;50.788;7.318;2023-04-27T12:04:34;101063.41;;;18.01;32.05
43125;BME280;49182;50.788;7.318;2023-04-27T12:07:01;101057.38;;;18.07;32.67
43125;BME280;49182;50.788;7.318;2023-04-27T12:09:28;101049.28;;;18.15;34.40
43125;BME280;49182;50.788;7.318;2023-04-27T12:11:56;101046.06;;;18.28;34.67
43125;BME280;49182;50.788;7.318;2023-04-27T12:14:23;101043.06;;;18.31;33.90
43125;BME280;49182;50.788;7.318;2023-04-27T12:16:49;101053.59;;;18.33;33.58
43125;BME280;49182;50.788;7.318;2023-04-27T12:19:16;101046.31;;;18.49;33.55
43125;BME280;49182;50.788;7.318;2023-04-27T12:21:43;101040.00;;;18.42;32.91
43125;BME280;49182;50.788;7.318;2023-04-27T12:24:09;101041.28;;;18.54;32.62
43125;BME280;49182;50.788;7.318;2023-04-27T12:26:36;101045.13;;;18.52;32.63
43125;BME280;49182;50.788;7.318;2023-04-27T12:29:04;101043.28;;;18.61;32.96
43125;BME280;49182;50.788;7.318;2023-04-27T12:31:31;101028.59;;;18.48;31.37
43125;BME280;49182;50.788;7.318;2023-04-27T12:33:57;101022.72;;;18.61;32.63
43125;BME280;49182;50.788;7.318;2023-04-27T12:36:24;101031.28;;;18.56;31.73
43125;BME280;49182;50.788;7.318;2023-04-27T12:38:51;101032.97;;;18.80;32.90
43125;BME280;49182;50.788;7.318;2023-04-27T12:41:17;101031.66;;;18.99;31.83
43125;BME280;49182;50.788;7.318;2023-04-27T12:43:44;101035.03;;;19.16;33.37
43125;BME280;49182;50.788;7.318;2023-04-27T12:46:12;101022.81;;;19.36;33.27
43125;BME280;49182;50.788;7.318;2023-04-27T12:48:38;101027.50;;;19.34;30.58
43125;BME280;49182;50.788;7.318;2023-04-27T12:51:05;101011.31;;;19.13;31.36
43125;BME280;49182;50.788;7.318;2023-04-27T12:53:32;101023.94;;;19.42;30.96
43125;BME280;49182;50.788;7.318;2023-04-27T12:55:59;101010.22;;;19.59;30.36
43125;BME280;49182;50.788;7.318;2023-04-27T12:58:26;101025.28;;;19.75;30.84